マガダン の空港の天気 - METARとTAF

マガダン・ソコル空港 ( UHMM / GDX ) - ロシア マガダン
飛行場実況気象(Metar)
観測時間11/27 20:00 MAGT (11/27 09:00 UTC)
風向・風速南南東 2m/s
視程10km以上
天気現象
全天を覆う雲 雲底高度 940m
気温-15℃
湿度85%
気圧1005hPa
METARUHMM 270900Z 16002MPS 110V220 9999 OVC031 M15/M17 Q1005 R10/490240 NOSIG RMK QFE739 R28/10001MPS
過去の天気等 Google飛行場航空写真 Wunderground天気予報

過去48時間のMETAR

飛行場予報(TAF)
発表時間: 11/27 18:59 MAGT (11/27 07:59 UTC)
予報対象時間: 27日20時 MAGT ~ 29日2時 MAGT
風向・風速北 3m/s 瞬間風速 8m/s
視程3100m
天気現象弱いしゅう雪
全天の8割程度の雲 雲底高度 340m
全天を覆う積乱雲 雲底高度 520m
27日20時 MAGT ~ 27日23時 MAGT に一時的に
視程800m
天気現象強いしゅう雪
全天を覆う雲 鉛直視程 120m
27日23時 MAGT から
風向・風速北 3m/s 瞬間風速 12m/s
視程1000m
天気現象しゅう雪
全天の8割程度の雲 雲底高度 150m
全天を覆う積乱雲 雲底高度 520m
27日23時 MAGT ~ 29日2時 MAGT に一時的に
風向・風速北 8m/s 瞬間風速 14m/s
視程300m
天気現象強いしゅう雪 高い地吹雪
全天を覆う雲 鉛直視程 60m
TAF UHMM 270759Z 2709/2815 01003G08MPS 3100 -SHSN BKN011 OVC017CB
TEMPO 2709/2712 0800 +SHSN VV004
FM271200 01003G12MPS 1000 SHSN BKN005 OVC017CB
TEMPO 2712/2815 01008G14MPS 0300 +SHSN BLSN VV002